sensor_id;sensor_type;location;lat;lon;timestamp;pressure;altitude;pressure_sealevel;temperature;humidity
46129;BME280;31860;45.186;5.790;2022-08-26T00:00:40;98816.22;;;27.66;42.43
46129;BME280;31860;45.186;5.790;2022-08-26T00:03:05;98815.38;;;27.66;42.63
46129;BME280;31860;45.186;5.790;2022-08-26T00:05:31;98817.94;;;27.67;42.20
46129;BME280;31860;45.186;5.790;2022-08-26T00:07:56;98819.88;;;27.65;42.34
46129;BME280;31860;45.186;5.790;2022-08-26T00:10:22;98810.22;;;27.63;42.62
46129;BME280;31860;45.186;5.790;2022-08-26T00:12:48;98807.66;;;27.61;42.45
46129;BME280;31860;45.186;5.790;2022-08-26T00:15:21;98809.38;;;27.62;42.61
46129;BME280;31860;45.186;5.790;2022-08-26T00:17:47;98810.47;;;27.60;42.71
46129;BME280;31860;45.186;5.790;2022-08-26T00:20:16;98805.97;;;27.60;42.35
46129;BME280;31860;45.186;5.790;2022-08-26T00:22:42;98805.09;;;27.60;42.63
46129;BME280;31860;45.186;5.790;2022-08-26T00:25:08;98809.84;;;27.56;42.65
46129;BME280;31860;45.186;5.790;2022-08-26T00:27:35;98802.88;;;27.54;42.92
46129;BME280;31860;45.186;5.790;2022-08-26T00:30:02;98802.25;;;27.50;42.74
46129;BME280;31860;45.186;5.790;2022-08-26T00:32:28;98805.16;;;27.47;42.65
46129;BME280;31860;45.186;5.790;2022-08-26T00:34:54;98797.31;;;27.44;43.28
46129;BME280;31860;45.186;5.790;2022-08-26T00:37:19;98800.25;;;27.41;42.81
46129;BME280;31860;45.186;5.790;2022-08-26T00:39:44;98798.75;;;27.37;42.84
46129;BME280;31860;45.186;5.790;2022-08-26T00:42:10;98807.03;;;27.34;43.10
46129;BME280;31860;45.186;5.790;2022-08-26T00:44:35;98808.88;;;27.34;43.09
46129;BME280;31860;45.186;5.790;2022-08-26T00:47:05;98804.34;;;27.34;43.27
46129;BME280;31860;45.186;5.790;2022-08-26T00:49:41;98814.25;;;27.34;43.05
46129;BME280;31860;45.186;5.790;2022-08-26T00:52:09;98814.13;;;27.35;43.24
46129;BME280;31860;45.186;5.790;2022-08-26T00:54:43;98811.56;;;27.34;42.94
46129;BME280;31860;45.186;5.790;2022-08-26T00:57:14;98799.84;;;27.35;43.11
46129;BME280;31860;45.186;5.790;2022-08-26T00:59:41;98805.44;;;27.32;43.16
46129;BME280;31860;45.186;5.790;2022-08-26T01:02:07;98801.78;;;27.33;42.66
46129;BME280;31860;45.186;5.790;2022-08-26T01:04:35;98799.09;;;27.33;42.83
46129;BME280;31860;45.186;5.790;2022-08-26T01:07:03;98799.97;;;27.33;42.91
46129;BME280;31860;45.186;5.790;2022-08-26T01:09:29;98802.84;;;27.30;42.95
46129;BME280;31860;45.186;5.790;2022-08-26T01:11:56;98802.09;;;27.28;42.99
46129;BME280;31860;45.186;5.790;2022-08-26T01:14:25;98805.88;;;27.26;43.37
46129;BME280;31860;45.186;5.790;2022-08-26T01:16:54;98815.72;;;27.25;43.04
46129;BME280;31860;45.186;5.790;2022-08-26T01:19:23;98815.97;;;27.22;43.47
46129;BME280;31860;45.186;5.790;2022-08-26T01:21:57;98817.78;;;27.22;43.08
46129;BME280;31860;45.186;5.790;2022-08-26T01:24:24;98806.44;;;27.18;43.44
46129;BME280;31860;45.186;5.790;2022-08-26T01:26:55;98811.91;;;27.16;43.22
46129;BME280;31860;45.186;5.790;2022-08-26T01:29:22;98819.22;;;27.14;43.29
46129;BME280;31860;45.186;5.790;2022-08-26T01:31:53;98813.97;;;27.13;43.50
46129;BME280;31860;45.186;5.790;2022-08-26T01:34:26;98818.59;;;27.11;43.87
46129;BME280;31860;45.186;5.790;2022-08-26T01:36:58;98810.75;;;27.08;43.44
46129;BME280;31860;45.186;5.790;2022-08-26T01:39:25;98810.00;;;27.06;43.84
46129;BME280;31860;45.186;5.790;2022-08-26T01:41:53;98810.22;;;27.03;44.02
46129;BME280;31860;45.186;5.790;2022-08-26T01:44:24;98817.41;;;27.02;44.04
46129;BME280;31860;45.186;5.790;2022-08-26T01:46:51;98817.53;;;27.01;44.06
46129;BME280;31860;45.186;5.790;2022-08-26T01:49:18;98820.09;;;27.02;44.17
46129;BME280;31860;45.186;5.790;2022-08-26T01:51:45;98806.69;;;27.02;43.62
46129;BME280;31860;45.186;5.790;2022-08-26T01:54:11;98806.56;;;27.04;43.92
46129;BME280;31860;45.186;5.790;2022-08-26T01:56:37;98816.34;;;27.05;43.75
46129;BME280;31860;45.186;5.790;2022-08-26T01:59:06;98813.66;;;27.05;44.11
46129;BME280;31860;45.186;5.790;2022-08-26T02:01:33;98816.47;;;27.03;44.03
46129;BME280;31860;45.186;5.790;2022-08-26T02:04:12;98813.91;;;27.02;44.09
46129;BME280;31860;45.186;5.790;2022-08-26T02:06:40;98811.41;;;26.99;44.11
46129;BME280;31860;45.186;5.790;2022-08-26T02:09:06;98812.50;;;26.96;43.96
46129;BME280;31860;45.186;5.790;2022-08-26T02:11:32;98814.22;;;26.97;44.25
46129;BME280;31860;45.186;5.790;2022-08-26T02:14:07;98815.91;;;26.98;44.54
46129;BME280;31860;45.186;5.790;2022-08-26T02:16:37;98819.69;;;26.96;44.42
46129;BME280;31860;45.186;5.790;2022-08-26T02:19:04;98816.03;;;26.97;44.47
46129;BME280;31860;45.186;5.790;2022-08-26T02:21:31;98813.47;;;26.95;44.10
46129;BME280;31860;45.186;5.790;2022-08-26T02:24:07;98818.84;;;26.95;44.35
46129;BME280;31860;45.186;5.790;2022-08-26T02:26:32;98817.97;;;26.95;44.65
46129;BME280;31860;45.186;5.790;2022-08-26T02:29:02;98828.69;;;26.95;44.91
46129;BME280;31860;45.186;5.790;2022-08-26T02:31:29;98827.00;;;26.94;44.81
46129;BME280;31860;45.186;5.790;2022-08-26T02:33:55;98829.78;;;26.92;45.50
46129;BME280;31860;45.186;5.790;2022-08-26T02:36:30;98831.63;;;26.92;45.63
46129;BME280;31860;45.186;5.790;2022-08-26T02:38:55;98822.69;;;26.91;45.76
46129;BME280;31860;45.186;5.790;2022-08-26T02:41:21;98822.69;;;26.91;45.93
46129;BME280;31860;45.186;5.790;2022-08-26T02:43:46;98816.72;;;26.88;45.25
46129;BME280;31860;45.186;5.790;2022-08-26T02:46:12;98818.41;;;26.89;45.48
46129;BME280;31860;45.186;5.790;2022-08-26T02:48:37;98826.56;;;26.87;45.04
46129;BME280;31860;45.186;5.790;2022-08-26T02:51:03;98819.50;;;26.86;45.13
46129;BME280;31860;45.186;5.790;2022-08-26T02:53:28;98816.19;;;26.83;45.20
46129;BME280;31860;45.186;5.790;2022-08-26T02:55:54;98820.81;;;26.81;45.38
46129;BME280;31860;45.186;5.790;2022-08-26T02:58:19;98813.72;;;26.80;45.54
46129;BME280;31860;45.186;5.790;2022-08-26T03:00:46;98813.81;;;26.78;45.23
46129;BME280;31860;45.186;5.790;2022-08-26T03:03:12;98812.22;;;26.76;45.35
46129;BME280;31860;45.186;5.790;2022-08-26T03:05:38;98813.19;;;26.75;45.73
46129;BME280;31860;45.186;5.790;2022-08-26T03:08:04;98812.34;;;26.74;45.51
46129;BME280;31860;45.186;5.790;2022-08-26T03:10:29;98820.59;;;26.71;45.81
46129;BME280;31860;45.186;5.790;2022-08-26T03:12:55;98812.56;;;26.71;45.90
46129;BME280;31860;45.186;5.790;2022-08-26T03:15:21;98810.91;;;26.69;45.91
46129;BME280;31860;45.186;5.790;2022-08-26T03:17:47;98815.41;;;26.68;45.73
46129;BME280;31860;45.186;5.790;2022-08-26T03:20:14;98811.97;;;26.66;45.80
46129;BME280;31860;45.186;5.790;2022-08-26T03:22:41;98813.28;;;26.61;45.72
46129;BME280;31860;45.186;5.790;2022-08-26T03:25:10;98815.88;;;26.62;46.21
46129;BME280;31860;45.186;5.790;2022-08-26T03:27:36;98815.13;;;26.60;46.17
46129;BME280;31860;45.186;5.790;2022-08-26T03:30:03;98812.66;;;26.57;46.29
46129;BME280;31860;45.186;5.790;2022-08-26T03:32:46;98810.94;;;26.56;46.04
46129;BME280;31860;45.186;5.790;2022-08-26T03:35:12;98812.00;;;26.54;46.34
46129;BME280;31860;45.186;5.790;2022-08-26T03:37:37;98813.81;;;26.53;46.12
46129;BME280;31860;45.186;5.790;2022-08-26T03:40:04;98819.94;;;26.55;46.32
46129;BME280;31860;45.186;5.790;2022-08-26T03:42:31;98820.81;;;26.56;46.79
46129;BME280;31860;45.186;5.790;2022-08-26T03:44:56;98812.88;;;26.54;46.93
46129;BME280;31860;45.186;5.790;2022-08-26T03:47:22;98814.81;;;26.52;46.51
46129;BME280;31860;45.186;5.790;2022-08-26T03:49:47;98804.19;;;26.51;46.90
46129;BME280;31860;45.186;5.790;2022-08-26T03:52:13;98806.88;;;26.51;47.56
46129;BME280;31860;45.186;5.790;2022-08-26T03:54:39;98809.56;;;26.51;47.70
46129;BME280;31860;45.186;5.790;2022-08-26T03:57:05;98801.50;;;26.51;47.37
46129;BME280;31860;45.186;5.790;2022-08-26T03:59:30;98816.72;;;26.50;47.47
46129;BME280;31860;45.186;5.790;2022-08-26T04:01:56;98814.16;;;26.49;47.55
46129;BME280;31860;45.186;5.790;2022-08-26T04:04:22;98815.03;;;26.49;47.84
46129;BME280;31860;45.186;5.790;2022-08-26T04:06:48;98813.31;;;26.48;47.58
46129;BME280;31860;45.186;5.790;2022-08-26T04:09:17;98813.31;;;26.48;47.42
46129;BME280;31860;45.186;5.790;2022-08-26T04:11:44;98816.09;;;26.47;47.42
46129;BME280;31860;45.186;5.790;2022-08-26T04:14:13;98814.28;;;26.47;47.20
46129;BME280;31860;45.186;5.790;2022-08-26T04:16:39;98821.34;;;26.48;47.09
46129;BME280;31860;45.186;5.790;2022-08-26T04:19:06;98818.66;;;26.48;47.49
46129;BME280;31860;45.186;5.790;2022-08-26T04:21:32;98818.78;;;26.47;47.77
46129;BME280;31860;45.186;5.790;2022-08-26T04:23:57;98818.97;;;26.44;48.01
46129;BME280;31860;45.186;5.790;2022-08-26T04:26:23;98824.25;;;26.45;48.05
46129;BME280;31860;45.186;5.790;2022-08-26T04:28:50;98822.50;;;26.44;47.97
46129;BME280;31860;45.186;5.790;2022-08-26T04:31:16;98819.84;;;26.44;47.62
46129;BME280;31860;45.186;5.790;2022-08-26T04:33:43;98828.00;;;26.43;48.20
46129;BME280;31860;45.186;5.790;2022-08-26T04:36:10;98826.06;;;26.45;48.15
46129;BME280;31860;45.186;5.790;2022-08-26T04:38:35;98833.34;;;26.43;48.20
46129;BME280;31860;45.186;5.790;2022-08-26T04:41:02;98829.59;;;26.45;47.73
46129;BME280;31860;45.186;5.790;2022-08-26T04:43:28;98833.13;;;26.46;47.75
46129;BME280;31860;45.186;5.790;2022-08-26T04:45:57;98834.97;;;26.45;47.95
46129;BME280;31860;45.186;5.790;2022-08-26T04:48:23;98832.38;;;26.44;48.14
46129;BME280;31860;45.186;5.790;2022-08-26T04:50:49;98840.41;;;26.44;48.17
46129;BME280;31860;45.186;5.790;2022-08-26T04:53:15;98844.06;;;26.43;48.76
46129;BME280;31860;45.186;5.790;2022-08-26T04:55:41;98838.94;;;26.40;48.52
46129;BME280;31860;45.186;5.790;2022-08-26T04:58:06;98845.25;;;26.39;48.95
46129;BME280;31860;45.186;5.790;2022-08-26T05:00:34;98842.44;;;26.40;48.57
46129;BME280;31860;45.186;5.790;2022-08-26T05:02:59;98839.88;;;26.39;48.40
46129;BME280;31860;45.186;5.790;2022-08-26T05:05:25;98839.88;;;26.39;48.80
46129;BME280;31860;45.186;5.790;2022-08-26T05:07:51;98845.59;;;26.34;48.70
46129;BME280;31860;45.186;5.790;2022-08-26T05:10:16;98843.72;;;26.35;48.86
46129;BME280;31860;45.186;5.790;2022-08-26T05:12:42;98856.19;;;26.36;48.73
46129;BME280;31860;45.186;5.790;2022-08-26T05:15:07;98862.50;;;26.35;48.58
46129;BME280;31860;45.186;5.790;2022-08-26T05:17:34;98863.25;;;26.37;48.69
46129;BME280;31860;45.186;5.790;2022-08-26T05:20:00;98865.16;;;26.35;48.78
46129;BME280;31860;45.186;5.790;2022-08-26T05:22:25;98860.69;;;26.35;49.05
46129;BME280;31860;45.186;5.790;2022-08-26T05:24:50;98866.16;;;26.34;48.99
46129;BME280;31860;45.186;5.790;2022-08-26T05:27:16;98863.47;;;26.34;49.04
46129;BME280;31860;45.186;5.790;2022-08-26T05:29:41;98861.72;;;26.33;49.13
46129;BME280;31860;45.186;5.790;2022-08-26T05:32:06;98864.34;;;26.34;49.11
46129;BME280;31860;45.186;5.790;2022-08-26T05:34:32;98862.81;;;26.30;49.53
46129;BME280;31860;45.186;5.790;2022-08-26T05:36:57;98870.94;;;26.28;49.21
46129;BME280;31860;45.186;5.790;2022-08-26T05:39:23;98859.81;;;26.22;49.61
46129;BME280;31860;45.186;5.790;2022-08-26T05:41:49;98865.28;;;26.20;49.79
46129;BME280;31860;45.186;5.790;2022-08-26T05:44:15;98869.00;;;26.18;49.86
46129;BME280;31860;45.186;5.790;2022-08-26T05:46:43;98878.22;;;26.14;49.71
46129;BME280;31860;45.186;5.790;2022-08-26T05:49:10;98864.94;;;26.12;49.86
46129;BME280;31860;45.186;5.790;2022-08-26T05:51:37;98869.41;;;26.12;50.17
46129;BME280;31860;45.186;5.790;2022-08-26T05:54:02;98866.09;;;26.08;50.35
46129;BME280;31860;45.186;5.790;2022-08-26T05:56:28;98877.03;;;26.05;50.47
46129;BME280;31860;45.186;5.790;2022-08-26T05:58:54;98871.84;;;26.02;50.23
46129;BME280;31860;45.186;5.790;2022-08-26T06:01:22;98887.38;;;25.97;50.50
46129;BME280;31860;45.186;5.790;2022-08-26T06:03:51;98887.38;;;25.97;50.86
46129;BME280;31860;45.186;5.790;2022-08-26T06:06:25;98883.06;;;25.95;51.05
46129;BME280;31860;45.186;5.790;2022-08-26T06:08:52;98886.72;;;25.94;50.75
46129;BME280;31860;45.186;5.790;2022-08-26T06:11:22;98884.03;;;25.94;51.04
46129;BME280;31860;45.186;5.790;2022-08-26T06:13:52;98885.75;;;25.95;51.11
46129;BME280;31860;45.186;5.790;2022-08-26T06:16:20;98890.91;;;25.98;50.79
46129;BME280;31860;45.186;5.790;2022-08-26T06:18:48;98893.25;;;26.02;51.26
46129;BME280;31860;45.186;5.790;2022-08-26T06:21:32;98902.72;;;26.08;51.32
46129;BME280;31860;45.186;5.790;2022-08-26T06:24:02;98895.38;;;26.11;51.24
46129;BME280;31860;45.186;5.790;2022-08-26T06:26:51;98908.31;;;26.17;50.81
46129;BME280;31860;45.186;5.790;2022-08-26T06:29:18;98900.84;;;26.22;50.89
46129;BME280;31860;45.186;5.790;2022-08-26T06:31:44;98907.38;;;26.31;50.80
46129;BME280;31860;45.186;5.790;2022-08-26T06:34:09;98904.19;;;26.39;50.96
46129;BME280;31860;45.186;5.790;2022-08-26T06:36:34;98904.72;;;26.44;50.66
46129;BME280;31860;45.186;5.790;2022-08-26T06:39:05;98901.50;;;26.51;51.36
46129;BME280;31860;45.186;5.790;2022-08-26T06:41:31;98911.81;;;26.57;51.40
46129;BME280;31860;45.186;5.790;2022-08-26T06:43:58;98905.91;;;26.65;51.70
46129;BME280;31860;45.186;5.790;2022-08-26T06:46:25;98906.38;;;26.71;51.75
46129;BME280;31860;45.186;5.790;2022-08-26T06:48:51;98918.38;;;26.78;51.68
46129;BME280;31860;45.186;5.790;2022-08-26T06:51:20;98918.81;;;26.85;51.38
46129;BME280;31860;45.186;5.790;2022-08-26T06:53:47;98913.88;;;26.91;51.17
46129;BME280;31860;45.186;5.790;2022-08-26T06:56:15;98925.03;;;26.98;50.56
46129;BME280;31860;45.186;5.790;2022-08-26T06:58:41;98913.84;;;27.04;50.42
46129;BME280;31860;45.186;5.790;2022-08-26T07:01:27;98908.81;;;27.12;50.60
46129;BME280;31860;45.186;5.790;2022-08-26T07:03:55;98914.59;;;27.18;50.27
46129;BME280;31860;45.186;5.790;2022-08-26T07:06:21;98913.06;;;27.27;49.64
46129;BME280;31860;45.186;5.790;2022-08-26T07:08:51;98910.84;;;27.34;49.99
46129;BME280;31860;45.186;5.790;2022-08-26T07:11:17;98920.28;;;27.39;49.88
46129;BME280;31860;45.186;5.790;2022-08-26T07:13:46;98916.28;;;27.45;49.88
46129;BME280;31860;45.186;5.790;2022-08-26T07:16:14;98918.53;;;27.51;49.61
46129;BME280;31860;45.186;5.790;2022-08-26T07:18:41;98920.66;;;27.58;49.72
46129;BME280;31860;45.186;5.790;2022-08-26T07:21:10;98922.03;;;27.64;49.51
46129;BME280;31860;45.186;5.790;2022-08-26T07:23:36;98922.66;;;27.67;49.06
46129;BME280;31860;45.186;5.790;2022-08-26T07:26:10;98928.41;;;27.74;49.37
46129;BME280;31860;45.186;5.790;2022-08-26T07:28:36;98921.84;;;27.78;49.14
46129;BME280;31860;45.186;5.790;2022-08-26T07:31:13;98916.25;;;27.81;48.57
46129;BME280;31860;45.186;5.790;2022-08-26T07:33:40;98914.94;;;27.86;48.87
46129;BME280;31860;45.186;5.790;2022-08-26T07:36:08;98910.94;;;27.92;48.81
46129;BME280;31860;45.186;5.790;2022-08-26T07:38:34;98911.34;;;27.98;48.65
46129;BME280;31860;45.186;5.790;2022-08-26T07:41:00;98914.44;;;28.05;48.41
46129;BME280;31860;45.186;5.790;2022-08-26T07:43:26;98922.06;;;28.11;48.36
46129;BME280;31860;45.186;5.790;2022-08-26T07:45:52;98915.22;;;28.18;48.08
46129;BME280;31860;45.186;5.790;2022-08-26T07:48:17;98916.47;;;28.25;48.00
46129;BME280;31860;45.186;5.790;2022-08-26T07:50:44;98905.50;;;28.28;48.24
46129;BME280;31860;45.186;5.790;2022-08-26T07:53:10;98904.38;;;28.31;48.06
46129;BME280;31860;45.186;5.790;2022-08-26T07:55:36;98901.56;;;28.32;47.94
46129;BME280;31860;45.186;5.790;2022-08-26T07:58:02;98899.75;;;28.33;47.68
46129;BME280;31860;45.186;5.790;2022-08-26T08:00:28;98899.63;;;28.34;47.79
46129;BME280;31860;45.186;5.790;2022-08-26T08:02:56;98911.25;;;28.35;47.50
46129;BME280;31860;45.186;5.790;2022-08-26T08:05:22;98911.25;;;28.35;47.88
46129;BME280;31860;45.186;5.790;2022-08-26T08:07:47;98907.59;;;28.36;48.01
46129;BME280;31860;45.186;5.790;2022-08-26T08:10:16;98906.75;;;28.35;47.77
46129;BME280;31860;45.186;5.790;2022-08-26T08:12:43;98907.69;;;28.34;47.63
46129;BME280;31860;45.186;5.790;2022-08-26T08:15:09;98907.81;;;28.33;47.82
46129;BME280;31860;45.186;5.790;2022-08-26T08:17:38;98906.00;;;28.33;48.07
46129;BME280;31860;45.186;5.790;2022-08-26T08:20:04;98914.06;;;28.33;47.80
46129;BME280;31860;45.186;5.790;2022-08-26T08:22:30;98908.69;;;28.33;47.66
46129;BME280;31860;45.186;5.790;2022-08-26T08:24:56;98914.69;;;28.37;47.92
46129;BME280;31860;45.186;5.790;2022-08-26T08:27:21;98908.34;;;28.38;48.04
46129;BME280;31860;45.186;5.790;2022-08-26T08:29:47;98908.22;;;28.39;47.81
46129;BME280;31860;45.186;5.790;2022-08-26T08:32:14;98904.66;;;28.39;47.85
46129;BME280;31860;45.186;5.790;2022-08-26T08:34:40;98907.09;;;28.42;47.72
46129;BME280;31860;45.186;5.790;2022-08-26T08:37:06;98905.91;;;28.46;47.90
46129;BME280;31860;45.186;5.790;2022-08-26T08:39:31;98903.72;;;28.51;47.33
46129;BME280;31860;45.186;5.790;2022-08-26T08:44:40;98904.53;;;28.64;47.03
46129;BME280;31860;45.186;5.790;2022-08-26T08:47:18;98903.91;;;28.71;46.40
46129;BME280;31860;45.186;5.790;2022-08-26T08:49:44;98912.47;;;28.76;46.63
46129;BME280;31860;45.186;5.790;2022-08-26T08:52:27;98898.41;;;28.84;46.30
46129;BME280;31860;45.186;5.790;2022-08-26T08:54:54;98903.44;;;28.88;46.43
46129;BME280;31860;45.186;5.790;2022-08-26T08:59:57;98916.03;;;28.99;45.65
46129;BME280;31860;45.186;5.790;2022-08-26T09:05:06;98910.16;;;29.05;44.84
46129;BME280;31860;45.186;5.790;2022-08-26T09:07:48;98906.13;;;29.11;44.86
46129;BME280;31860;45.186;5.790;2022-08-26T09:12:44;98897.94;;;29.23;44.43
46129;BME280;31860;45.186;5.790;2022-08-26T09:15:20;98898.47;;;29.28;44.12
46129;BME280;31860;45.186;5.790;2022-08-26T09:18:24;98903.31;;;29.34;43.50
46129;BME280;31860;45.186;5.790;2022-08-26T09:21:08;98902.09;;;29.38;43.79
46129;BME280;31860;45.186;5.790;2022-08-26T09:23:35;98899.03;;;29.43;43.77
46129;BME280;31860;45.186;5.790;2022-08-26T09:26:13;98895.94;;;29.47;43.37
46129;BME280;31860;45.186;5.790;2022-08-26T09:28:41;98898.41;;;29.50;43.57
46129;BME280;31860;45.186;5.790;2022-08-26T09:31:19;98898.03;;;29.55;43.47
46129;BME280;31860;45.186;5.790;2022-08-26T09:33:45;98893.00;;;29.61;43.79
46129;BME280;31860;45.186;5.790;2022-08-26T09:36:22;98879.03;;;29.67;43.91
46129;BME280;31860;45.186;5.790;2022-08-26T09:38:57;98885.78;;;29.73;43.87
46129;BME280;31860;45.186;5.790;2022-08-26T09:44:17;98875.81;;;29.84;43.32
46129;BME280;31860;45.186;5.790;2022-08-26T09:47:03;98873.59;;;29.89;43.02
46129;BME280;31860;45.186;5.790;2022-08-26T09:52:19;98875.63;;;29.97;43.41
46129;BME280;31860;45.186;5.790;2022-08-26T09:55:19;98878.78;;;30.02;43.42
46129;BME280;31860;45.186;5.790;2022-08-26T09:57:51;98870.13;;;29.99;43.29
46129;BME280;31860;45.186;5.790;2022-08-26T10:03:01;98866.69;;;29.97;43.77
46129;BME280;31860;45.186;5.790;2022-08-26T10:08:00;98863.16;;;29.96;43.55
46129;BME280;31860;45.186;5.790;2022-08-26T10:10:39;98855.41;;;30.03;43.72
46129;BME280;31860;45.186;5.790;2022-08-26T10:13:21;98854.03;;;30.08;43.56
46129;BME280;31860;45.186;5.790;2022-08-26T10:18:36;98855.47;;;30.12;43.58
46129;BME280;31860;45.186;5.790;2022-08-26T10:23:37;98850.59;;;30.06;43.86
46129;BME280;31860;45.186;5.790;2022-08-26T10:26:08;98856.25;;;30.03;43.87
46129;BME280;31860;45.186;5.790;2022-08-26T10:28:39;98855.13;;;30.06;43.76
46129;BME280;31860;45.186;5.790;2022-08-26T10:31:45;98848.63;;;30.08;42.56
46129;BME280;31860;45.186;5.790;2022-08-26T10:34:15;98846.81;;;30.09;42.81
46129;BME280;31860;45.186;5.790;2022-08-26T10:36:50;98843.00;;;30.11;42.66
46129;BME280;31860;45.186;5.790;2022-08-26T10:42:28;98847.38;;;30.12;42.25
46129;BME280;31860;45.186;5.790;2022-08-26T10:45:04;98835.16;;;30.08;42.88
46129;BME280;31860;45.186;5.790;2022-08-26T10:47:42;98848.78;;;30.07;42.84
46129;BME280;31860;45.186;5.790;2022-08-26T10:50:10;98837.84;;;30.08;43.11
46129;BME280;31860;45.186;5.790;2022-08-26T10:53:02;98828.78;;;30.09;43.05
46129;BME280;31860;45.186;5.790;2022-08-26T10:55:39;98829.75;;;30.08;43.08
46129;BME280;31860;45.186;5.790;2022-08-26T11:01:09;98833.06;;;30.12;43.44
46129;BME280;31860;45.186;5.790;2022-08-26T11:06:28;98831.44;;;30.20;43.61
46129;BME280;31860;45.186;5.790;2022-08-26T11:08:55;98822.19;;;30.23;43.37
46129;BME280;31860;45.186;5.790;2022-08-26T11:11:40;98820.50;;;30.22;42.92
46129;BME280;31860;45.186;5.790;2022-08-26T11:14:07;98821.47;;;30.21;43.47
46129;BME280;31860;45.186;5.790;2022-08-26T11:16:40;98826.16;;;30.19;43.39
46129;BME280;31860;45.186;5.790;2022-08-26T11:19:08;98826.41;;;30.16;43.39
46129;BME280;31860;45.186;5.790;2022-08-26T11:21:50;98826.69;;;30.13;43.30
46129;BME280;31860;45.186;5.790;2022-08-26T11:32:51;98821.69;;;30.08;43.56
46129;BME280;31860;45.186;5.790;2022-08-26T11:37:53;98817.59;;;30.14;44.32
46129;BME280;31860;45.186;5.790;2022-08-26T11:40:25;98810.25;;;30.16;44.05
46129;BME280;31860;45.186;5.790;2022-08-26T11:42:56;98809.28;;;30.17;43.94
46129;BME280;31860;45.186;5.790;2022-08-26T11:45:32;98818.91;;;30.19;43.75
46129;BME280;31860;45.186;5.790;2022-08-26T11:48:17;98812.81;;;30.17;43.92
46129;BME280;31860;45.186;5.790;2022-08-26T11:51:05;98808.28;;;30.18;43.70
46129;BME280;31860;45.186;5.790;2022-08-26T11:53:33;98808.00;;;30.21;44.19
46129;BME280;31860;45.186;5.790;2022-08-26T11:56:03;98807.88;;;30.22;43.69
46129;BME280;31860;45.186;5.790;2022-08-26T11:58:30;98803.31;;;30.23;43.61
46129;BME280;31860;45.186;5.790;2022-08-26T12:01:02;98805.91;;;30.24;43.16
46129;BME280;31860;45.186;5.790;2022-08-26T12:03:38;98801.25;;;30.26;43.53
46129;BME280;31860;45.186;5.790;2022-08-26T12:06:17;98800.38;;;30.26;43.28
46129;BME280;31860;45.186;5.790;2022-08-26T12:08:46;98801.34;;;30.25;43.43
46129;BME280;31860;45.186;5.790;2022-08-26T12:11:20;98802.22;;;30.25;43.52
46129;BME280;31860;45.186;5.790;2022-08-26T12:16:32;98796.72;;;30.27;43.49
46129;BME280;31860;45.186;5.790;2022-08-26T12:18:58;98778.81;;;30.26;43.53
46129;BME280;31860;45.186;5.790;2022-08-26T12:21:26;98799.53;;;30.25;43.87
46129;BME280;31860;45.186;5.790;2022-08-26T12:23:58;98786.91;;;30.26;43.66
46129;BME280;31860;45.186;5.790;2022-08-26T12:26:30;98778.97;;;30.24;43.62
46129;BME280;31860;45.186;5.790;2022-08-26T12:29:23;98779.69;;;30.26;44.07
46129;BME280;31860;45.186;5.790;2022-08-26T12:31:50;98787.66;;;30.28;43.97
46129;BME280;31860;45.186;5.790;2022-08-26T12:34:17;98779.44;;;30.29;43.19
46129;BME280;31860;45.186;5.790;2022-08-26T12:36:48;98781.03;;;30.32;42.55
46129;BME280;31860;45.186;5.790;2022-08-26T12:39:36;98770.09;;;30.33;42.51
46129;BME280;31860;45.186;5.790;2022-08-26T12:42:05;98769.81;;;30.36;42.77
46129;BME280;31860;45.186;5.790;2022-08-26T12:47:36;98765.72;;;30.42;42.69
46129;BME280;31860;45.186;5.790;2022-08-26T12:50:16;98756.66;;;30.43;42.79
46129;BME280;31860;45.186;5.790;2022-08-26T12:53:01;98750.25;;;30.44;42.75
46129;BME280;31860;45.186;5.790;2022-08-26T12:58:34;98748.88;;;30.49;42.29
46129;BME280;31860;45.186;5.790;2022-08-26T13:08:45;98734.94;;;30.44;41.45
46129;BME280;31860;45.186;5.790;2022-08-26T13:11:29;98737.78;;;30.43;40.33
46129;BME280;31860;45.186;5.790;2022-08-26T13:14:15;98727.97;;;30.42;40.32
46129;BME280;31860;45.186;5.790;2022-08-26T13:16:42;98734.38;;;30.41;40.71
46129;BME280;31860;45.186;5.790;2022-08-26T13:19:10;98726.41;;;30.39;40.71
46129;BME280;31860;45.186;5.790;2022-08-26T13:21:56;98717.47;;;30.39;40.18
46129;BME280;31860;45.186;5.790;2022-08-26T13:24:31;98716.34;;;30.41;40.95
46129;BME280;31860;45.186;5.790;2022-08-26T13:26:59;98718.03;;;30.42;40.95
46129;BME280;31860;45.186;5.790;2022-08-26T13:29:24;98716.22;;;30.43;41.29
46129;BME280;31860;45.186;5.790;2022-08-26T13:31:50;98715.34;;;30.42;41.13
46129;BME280;31860;45.186;5.790;2022-08-26T13:34:17;98725.28;;;30.42;41.23
46129;BME280;31860;45.186;5.790;2022-08-26T13:36:47;98709.97;;;30.42;40.77
46129;BME280;31860;45.186;5.790;2022-08-26T13:39:14;98708.28;;;30.41;40.42
46129;BME280;31860;45.186;5.790;2022-08-26T13:41:39;98715.34;;;30.42;40.53
46129;BME280;31860;45.186;5.790;2022-08-26T13:44:06;98710.81;;;30.43;40.69
46129;BME280;31860;45.186;5.790;2022-08-26T13:46:32;98703.44;;;30.45;40.43
46129;BME280;31860;45.186;5.790;2022-08-26T13:48:57;98700.63;;;30.46;40.13
46129;BME280;31860;45.186;5.790;2022-08-26T13:51:24;98703.31;;;30.46;40.07
46129;BME280;31860;45.186;5.790;2022-08-26T13:53:51;98693.63;;;30.44;39.97
46129;BME280;31860;45.186;5.790;2022-08-26T13:56:17;98692.91;;;30.42;39.72
46129;BME280;31860;45.186;5.790;2022-08-26T13:58:43;98698.16;;;30.43;40.02
46129;BME280;31860;45.186;5.790;2022-08-26T14:01:08;98689.09;;;30.44;39.80
46129;BME280;31860;45.186;5.790;2022-08-26T14:03:34;98688.97;;;30.46;39.67
46129;BME280;31860;45.186;5.790;2022-08-26T14:06:00;98685.28;;;30.47;40.14
46129;BME280;31860;45.186;5.790;2022-08-26T14:08:25;98686.84;;;30.49;40.39
46129;BME280;31860;45.186;5.790;2022-08-26T14:10:50;98682.88;;;30.53;40.56
46129;BME280;31860;45.186;5.790;2022-08-26T14:13:16;98692.69;;;30.54;40.54